DNKN/KAN METAR and TAF weather

Enter ICAO airport designator
Station Type Date Time Source
DNKN METAR 2018/12/12 16:00 UTC NOAA

DNKN 121600Z 05009KT CAVOK 28/03 Q1017 NOSIG


Station Type Date Time Source
DNKN Decoded METAR 2018/12/12 16:00 UTC NOAA

Kano, Nigeria (DNKN) 12-03N 008-32E 481M
Dec 12, 2018 - 11:00 AM EST / 2018.12.12 1600 UTC
Wind: from the NE (050 degrees) at 10 MPH (9 KT):0
Visibility: greater than 7 mile(s):0
Temperature: 82 F (28 C)
Dew Point: 37 F (3 C)
Relative Humidity: 20%
Pressure (altimeter): 30.03 in. Hg (1017 hPa)
ob: DNKN 121600Z 05009KT CAVOK 28/03 Q1017 NOSIG
cycle: 16

Station Type Date Time Source
DNKN TAF 2018/12/12 12:24 UTC NOAA

TAF DNKN 120940Z 1212/1318 07012KT 5000 HZ NSC
BECMG 1215/1217 8000 NSW


Example: see airport list